Time;durP1;ratioP1;P1;durP2;ratioP2;P2;SDS_P1;SDS_P2;PMS_P1;PMS_P2;Temp;Humidity;BMP_temperature;BMP_pressure;BME280_temperature;BME280_humidity;BME280_pressure;Samples;Min_cycle;Max_cycle;Signal;HPM_P1;HPM_P2
2022/03/20 00:00:13;;;;;;;1.00;1.00;;;7.20;64.40;;;;;;5012489;28;20393;-74
2022/03/20 00:02:40;;;;;;;1.30;1.10;;;7.20;64.90;;;;;;5012052;28;20385;-74
2022/03/20 00:05:06;;;;;;;1.20;1.10;;;7.20;65.40;;;;;;5012495;28;20500;-74
2022/03/20 00:07:33;;;;;;;0.50;0.50;;;7.20;65.60;;;;;;5012060;28;20874;-73
2022/03/20 00:10:00;;;;;;;0.40;0.30;;;7.10;66.50;;;;;;5006707;28;20447;-74
2022/03/20 00:12:26;;;;;;;0.57;0.57;;;7.10;66.50;;;;;;5011888;28;20440;-74
2022/03/20 00:14:52;;;;;;;0.50;0.50;;;7.10;66.70;;;;;;5011064;28;20779;-74
2022/03/20 00:17:20;;;;;;;0.90;0.90;;;7.10;67.60;;;;;;5011849;28;20399;-74
2022/03/20 00:19:46;;;;;;;0.60;0.60;;;7.10;68.10;;;;;;5011273;28;20895;-74
2022/03/20 00:22:13;;;;;;;1.80;1.70;;;7.20;65.40;;;;;;5011127;28;20396;-74
2022/03/20 00:24:41;;;;;;;1.00;1.00;;;7.00;67.70;;;;;;5011766;28;20407;-74
2022/03/20 00:27:12;;;;;;;0.40;0.30;;;6.90;69.40;;;;;;5006073;28;20397;-74
2022/03/20 00:29:39;;;;;;;1.20;0.80;;;6.90;72.40;;;;;;5011574;28;20417;-75
2022/03/20 00:32:06;;;;;;;1.70;1.10;;;6.80;72.60;;;;;;5010618;28;20397;-75
2022/03/20 00:34:32;;;;;;;0.80;0.80;;;6.90;73.80;;;;;;5011204;28;20841;-75
2022/03/20 00:36:58;;;;;;;1.50;1.40;;;6.90;71.10;;;;;;5010445;28;20397;-75
2022/03/20 00:39:24;;;;;;;0.60;0.60;;;7.00;72.60;;;;;;5010760;28;20455;-75
2022/03/20 00:41:50;;;;;;;0.60;0.60;;;6.90;72.70;;;;;;5011622;28;20481;-75
2022/03/20 00:44:15;;;;;;;0.50;0.50;;;7.00;73.70;;;;;;5009845;28;20408;-75
2022/03/20 00:46:41;;;;;;;0.70;0.70;;;7.00;73.20;;;;;;5011762;28;20423;-75
2022/03/20 00:49:07;;;;;;;0.80;0.80;;;6.90;72.60;;;;;;5010464;28;20536;-75
2022/03/20 00:51:33;;;;;;;0.40;0.30;;;6.90;73.30;;;;;;5002219;28;20511;-75
2022/03/20 00:53:59;;;;;;;1.40;1.30;;;7.10;74.60;;;;;;5011449;28;20443;-75
2022/03/20 00:56:26;;;;;;;2.10;1.00;;;7.10;73.90;;;;;;5010194;28;20893;-75
2022/03/20 00:58:52;;;;;;;1.00;1.00;;;6.80;75.20;;;;;;5011177;28;20397;-75
2022/03/20 01:01:18;;;;;;;0.40;0.30;;;6.70;76.70;;;;;;5009964;28;20400;-75
2022/03/20 01:03:44;;;;;;;0.80;0.80;;;6.70;76.80;;;;;;5010951;28;20808;-75
2022/03/20 01:06:10;;;;;;;0.43;0.43;;;6.60;78.10;;;;;;5010668;28;20452;-75
2022/03/20 01:08:37;;;;;;;0.70;0.57;;;6.60;78.70;;;;;;5010084;28;20436;-75
2022/03/20 01:11:05;;;;;;;0.40;0.20;;;6.60;79.70;;;;;;5010815;28;20523;-75
2022/03/20 01:13:30;;;;;;;0.40;0.30;;;6.60;79.40;;;;;;5009831;28;20939;-75
2022/03/20 01:15:57;;;;;;;1.40;1.30;;;6.50;79.70;;;;;;5009901;28;20397;-75
2022/03/20 01:18:24;;;;;;;0.40;0.40;;;6.60;79.30;;;;;;5010971;28;20411;-75
2022/03/20 01:20:50;;;;;;;0.63;0.60;;;6.40;79.90;;;;;;5010236;28;20397;-75
2022/03/20 01:23:16;;;;;;;0.90;0.90;;;6.40;80.70;;;;;;5011338;28;20427;-75
2022/03/20 01:25:42;;;;;;;0.40;0.30;;;6.30;82.00;;;;;;5009931;28;20405;-75
2022/03/20 01:28:08;;;;;;;0.60;0.60;;;6.20;83.10;;;;;;5012050;28;20438;-75
2022/03/20 01:30:34;;;;;;;0.50;0.50;;;6.20;84.00;;;;;;5010345;28;20400;-74
2022/03/20 01:33:00;;;;;;;0.93;0.77;;;6.10;83.90;;;;;;5003412;28;20412;-75
2022/03/20 01:35:25;;;;;;;1.92;1.02;;;6.20;83.00;;;;;;5002417;28;20397;-75
2022/03/20 01:37:51;;;;;;;0.40;0.35;;;6.40;83.90;;;;;;5009366;28;20415;-75
2022/03/20 01:40:17;;;;;;;0.80;0.70;;;6.20;83.60;;;;;;5014363;28;20427;-75
2022/03/20 01:42:43;;;;;;;1.30;0.70;;;6.20;84.90;;;;;;5009697;28;20403;-75
2022/03/20 01:45:13;;;;;;;0.40;0.20;;;6.20;83.70;;;;;;5009162;28;20536;-75
2022/03/20 01:47:38;;;;;;;1.05;1.02;;;6.30;80.60;;;;;;4991126;28;20469;-75
2022/03/20 01:50:04;;;;;;;0.40;0.40;;;6.10;82.10;;;;;;4990519;28;20967;-75
2022/03/20 01:52:32;;;;;;;0.55;0.55;;;6.20;82.00;;;;;;4996215;28;20400;-73
2022/03/20 01:54:58;;;;;;;0.60;0.60;;;6.10;81.00;;;;;;5009816;28;20412;-75
2022/03/20 01:57:24;;;;;;;0.40;0.30;;;6.00;79.00;;;;;;5009780;28;20742;-73
2022/03/20 01:59:51;;;;;;;0.70;0.50;;;6.00;79.50;;;;;;5009896;28;20844;-73
2022/03/20 02:02:18;;;;;;;0.40;0.20;;;6.00;79.20;;;;;;5010264;28;20397;-73
2022/03/20 02:04:43;;;;;;;0.40;0.30;;;6.10;80.90;;;;;;5010125;28;20401;-74
2022/03/20 02:07:10;;;;;;;1.00;1.00;;;6.20;81.20;;;;;;5009156;28;20397;-74
2022/03/20 02:09:37;;;;;;;0.40;0.30;;;6.20;82.40;;;;;;5009909;28;20456;-73
2022/03/20 02:12:03;;;;;;;0.98;0.98;;;6.10;81.30;;;;;;5008964;28;20451;-74
2022/03/20 02:14:32;;;;;;;0.40;0.40;;;6.10;85.00;;;;;;5009405;28;20471;-74
2022/03/20 02:16:58;;;;;;;0.40;0.20;;;6.10;88.10;;;;;;5011004;28;20401;-73
2022/03/20 02:19:25;;;;;;;0.60;0.50;;;6.20;88.10;;;;;;5012687;28;20428;-73
2022/03/20 02:21:51;;;;;;;0.70;0.70;;;6.10;89.70;;;;;;5013443;28;20975;-74
2022/03/20 02:24:36;;;;;;;0.40;0.30;;;6.20;90.60;;;;;;5013152;28;20443;-74
2022/03/20 02:27:19;;;;;;;0.70;0.70;;;6.30;90.90;;;;;;5013824;28;20436;-74
2022/03/20 02:29:52;;;;;;;0.90;0.90;;;6.20;91.00;;;;;;5013673;28;20427;-74
2022/03/20 02:32:27;;;;;;;0.40;0.20;;;6.20;91.80;;;;;;5013360;28;20770;-75
2022/03/20 02:34:53;;;;;;;0.80;0.60;;;6.10;91.40;;;;;;5012301;28;20408;-74
2022/03/20 02:37:21;;;;;;;1.10;0.90;;;6.10;91.90;;;;;;5013028;28;20408;-74
2022/03/20 02:39:48;;;;;;;1.00;1.00;;;6.20;91.80;;;;;;5013879;28;20400;-74
2022/03/20 02:42:15;;;;;;;0.40;0.40;;;6.50;91.70;;;;;;5013224;28;20476;-74
2022/03/20 02:45:03;;;;;;;0.60;0.60;;;6.20;91.40;;;;;;5012464;28;20869;-74
2022/03/20 02:47:41;;;;;;;1.40;1.30;;;6.20;91.60;;;;;;5010217;28;20405;-74
2022/03/20 02:50:17;;;;;;;0.50;0.50;;;6.30;92.00;;;;;;5013543;28;20431;-74
2022/03/20 02:52:47;;;;;;;0.40;0.30;;;6.20;92.00;;;;;;5012559;28;20400;-74
2022/03/20 02:55:14;;;;;;;0.70;0.60;;;6.30;92.00;;;;;;5013776;28;20389;-74
2022/03/20 02:57:40;;;;;;;0.40;0.40;;;6.30;92.30;;;;;;5012845;28;20377;-74
2022/03/20 03:00:07;;;;;;;0.40;0.20;;;6.10;90.90;;;;;;5013700;28;20452;-74
2022/03/20 03:02:44;;;;;;;1.20;1.10;;;6.20;91.20;;;;;;5012303;28;20405;-75
2022/03/20 03:05:14;;;;;;;0.80;0.80;;;6.20;90.80;;;;;;5012820;28;20487;-74
2022/03/20 03:13:14;;;;;;;0.40;0.20;;;6.10;91.30;;;;;;5013024;28;20399;-74
2022/03/20 03:15:41;;;;;;;1.60;0.80;;;6.20;91.90;;;;;;5013507;28;20903;-74
2022/03/20 03:18:06;;;;;;;3.35;1.95;;;6.10;91.80;;;;;;5012730;28;20516;-74
2022/03/20 03:20:32;;;;;;;1.70;1.20;;;6.20;92.00;;;;;;5013016;28;20571;-74
2022/03/20 03:22:59;;;;;;;0.93;0.77;;;6.20;92.00;;;;;;5012102;28;20475;-74
2022/03/20 03:25:25;;;;;;;0.40;0.40;;;6.10;92.30;;;;;;5011261;28;20766;-74
2022/03/20 03:27:52;;;;;;;0.40;0.30;;;6.10;91.90;;;;;;5012283;28;20571;-74
2022/03/20 03:30:18;;;;;;;1.10;0.80;;;6.30;92.80;;;;;;5012109;28;20392;-74
2022/03/20 03:32:44;;;;;;;0.40;0.30;;;6.30;93.50;;;;;;5012998;28;20403;-75
2022/03/20 03:37:57;;;;;;;0.40;0.20;;;6.30;92.90;;;;;;5012724;28;20467;-75
2022/03/20 03:40:23;;;;;;;1.30;1.30;;;6.20;92.50;;;;;;5011945;28;20408;-75
2022/03/20 03:42:49;;;;;;;0.90;0.90;;;6.20;92.90;;;;;;5012537;28;20381;-74
2022/03/20 03:45:15;;;;;;;0.70;0.70;;;6.30;93.30;;;;;;5011818;28;20458;-74
2022/03/20 03:47:41;;;;;;;2.20;0.90;;;6.30;92.60;;;;;;5011897;28;20393;-74
2022/03/20 03:50:08;;;;;;;1.30;1.00;;;6.20;91.70;;;;;;4996850;28;20397;-75
2022/03/20 03:52:34;;;;;;;0.50;0.50;;;6.30;91.10;;;;;;5009020;28;20920;-76
2022/03/20 03:55:00;;;;;;;1.20;0.60;;;6.40;90.00;;;;;;5005287;28;20411;-76
2022/03/20 03:57:26;;;;;;;0.40;0.40;;;6.30;90.20;;;;;;5003880;28;20398;-77
2022/03/20 03:59:52;;;;;;;14.85;5.95;;;6.00;90.90;;;;;;5010053;28;20455;-76
2022/03/20 04:02:17;;;;;;;0.40;0.30;;;6.10;91.40;;;;;;5010435;28;20782;-76
2022/03/20 04:04:43;;;;;;;0.40;0.30;;;6.00;91.60;;;;;;4999983;28;20430;-76
2022/03/20 04:07:09;;;;;;;0.40;0.20;;;6.10;92.60;;;;;;5004388;28;20844;-76
2022/03/20 04:09:36;;;;;;;1.60;1.00;;;6.00;92.30;;;;;;5005028;28;20491;-76
2022/03/20 04:12:03;;;;;;;0.40;0.20;;;5.90;92.60;;;;;;5006523;28;20393;-76
2022/03/20 04:14:29;;;;;;;0.90;0.60;;;5.90;93.10;;;;;;5005818;28;20397;-76
2022/03/20 04:16:55;;;;;;;0.60;0.60;;;6.00;93.30;;;;;;5009699;28;20408;-76
2022/03/20 04:19:21;;;;;;;0.40;0.20;;;6.00;93.20;;;;;;5008241;28;20400;-76
2022/03/20 04:21:50;;;;;;;0.40;0.20;;;6.00;93.40;;;;;;5003110;28;20561;-74
2022/03/20 04:24:16;;;;;;;0.40;0.30;;;6.00;93.50;;;;;;4994618;28;20476;-74
2022/03/20 04:26:42;;;;;;;0.40;0.40;;;6.10;93.80;;;;;;5011365;28;20381;-74
2022/03/20 04:29:08;;;;;;;0.40;0.20;;;6.00;93.70;;;;;;5011088;28;20420;-74
2022/03/20 04:31:33;;;;;;;0.40;0.20;;;6.20;94.40;;;;;;5011460;28;20738;-74
2022/03/20 04:33:59;;;;;;;0.90;0.90;;;6.10;94.20;;;;;;5011470;28;20408;-74
2022/03/20 04:36:27;;;;;;;1.10;1.00;;;6.10;94.80;;;;;;5011245;28;20726;-75
2022/03/20 04:38:55;;;;;;;0.40;0.30;;;6.10;95.80;;;;;;5005287;28;20888;-74
2022/03/20 04:41:21;;;;;;;0.60;0.50;;;6.20;95.00;;;;;;5009361;28;20393;-74
2022/03/20 04:43:49;;;;;;;0.77;0.77;;;6.10;95.00;;;;;;4999587;28;20398;-74
2022/03/20 04:46:16;;;;;;;0.40;0.20;;;6.10;95.60;;;;;;5006056;28;20385;-74
2022/03/20 04:59:40;;;;;;;0.90;0.70;;;6.20;95.80;;;;;;5010981;28;20537;-74
2022/03/20 05:02:06;;;;;;;0.40;0.20;;;6.20;96.80;;;;;;5010944;28;20385;-74
2022/03/20 05:04:32;;;;;;;0.60;0.60;;;6.30;95.80;;;;;;5011121;28;20413;-74
2022/03/20 05:06:57;;;;;;;0.40;0.20;;;6.20;96.50;;;;;;5011235;28;20381;-74
2022/03/20 05:14:51;;;;;;;0.90;0.50;;;6.40;95.60;;;;;;5000449;28;20446;-75
2022/03/20 05:17:17;;;;;;;0.40;0.30;;;6.30;95.90;;;;;;5009957;28;20401;-75
2022/03/20 05:19:43;;;;;;;0.50;0.50;;;6.30;95.90;;;;;;5010869;28;20405;-74
2022/03/20 05:22:10;;;;;;;0.60;0.60;;;6.40;95.30;;;;;;5011287;28;20404;-74
2022/03/20 05:24:37;;;;;;;0.82;0.82;;;6.30;95.20;;;;;;5009882;28;20389;-75
2022/03/20 05:27:04;;;;;;;0.50;0.50;;;6.40;95.30;;;;;;5010739;28;20399;-75
2022/03/20 05:29:31;;;;;;;1.20;1.20;;;6.40;94.60;;;;;;5010051;28;20421;-75
2022/03/20 05:31:57;;;;;;;1.20;0.80;;;6.50;94.90;;;;;;5011021;28;20409;-75
2022/03/20 05:34:23;;;;;;;3.60;2.10;;;6.50;93.50;;;;;;5010167;28;20529;-75
2022/03/20 05:36:49;;;;;;;1.27;1.20;;;6.40;94.60;;;;;;5010816;28;20423;-75
2022/03/20 05:39:15;;;;;;;0.60;0.60;;;6.40;94.70;;;;;;5010449;28;20413;-75
2022/03/20 05:41:48;;;;;;;2.20;1.30;;;6.50;94.50;;;;;;5009783;28;20765;-74
2022/03/20 05:44:19;;;;;;;0.50;0.50;;;6.60;94.50;;;;;;5011121;28;20741;-74
2022/03/20 05:46:46;;;;;;;1.35;1.25;;;6.70;93.20;;;;;;5009991;28;20407;-74
2022/03/20 05:49:13;;;;;;;0.50;0.50;;;6.70;92.80;;;;;;5010334;28;20420;-74
2022/03/20 05:51:40;;;;;;;1.60;0.90;;;6.70;93.10;;;;;;4999314;28;20437;-74
2022/03/20 05:54:06;;;;;;;1.60;1.50;;;6.50;94.10;;;;;;5009665;28;20437;-74
2022/03/20 05:59:16;;;;;;;0.40;0.20;;;6.30;94.90;;;;;;5014587;28;20773;-74
2022/03/20 06:01:42;;;;;;;0.40;0.20;;;6.20;95.40;;;;;;5004397;28;20402;-74
2022/03/20 06:04:08;;;;;;;0.40;0.30;;;6.20;96.20;;;;;;5008536;28;20381;-75
2022/03/20 06:06:37;;;;;;;0.40;0.20;;;6.00;96.20;;;;;;5014795;28;20488;-74
2022/03/20 06:09:06;;;;;;;0.40;0.20;;;6.00;97.40;;;;;;5016092;28;20865;-75
2022/03/20 06:11:35;;;;;;;0.90;0.90;;;6.10;97.10;;;;;;5005755;28;20402;-75
2022/03/20 06:14:01;;;;;;;0.70;0.70;;;6.10;98.30;;;;;;5015941;28;20729;-74
2022/03/20 06:16:28;;;;;;;0.70;0.70;;;6.00;97.10;;;;;;5016600;28;20399;-76
2022/03/20 06:18:54;;;;;;;0.50;0.50;;;6.10;97.70;;;;;;5011859;28;20433;-73
2022/03/20 06:21:20;;;;;;;0.40;0.20;;;6.20;97.70;;;;;;5010530;28;20401;-73
2022/03/20 06:23:46;;;;;;;0.40;0.30;;;6.30;97.50;;;;;;5005861;28;20401;-74
2022/03/20 06:26:12;;;;;;;0.40;0.30;;;6.40;96.50;;;;;;5005814;28;20650;-74
2022/03/20 06:28:40;;;;;;;0.40;0.20;;;6.40;96.30;;;;;;5005585;28;20441;-74
2022/03/20 06:31:10;;;;;;;0.98;0.65;;;6.40;96.80;;;;;;5007751;28;20745;-74
2022/03/20 06:33:37;;;;;;;0.40;0.20;;;6.60;96.90;;;;;;5011579;28;20900;-74
2022/03/20 06:36:04;;;;;;;0.80;0.80;;;6.50;97.40;;;;;;5005949;28;20449;-76
2022/03/20 06:38:31;;;;;;;0.60;0.60;;;6.70;96.40;;;;;;5010957;28;20408;-75
2022/03/20 06:40:57;;;;;;;0.40;0.40;;;6.90;95.80;;;;;;5023428;28;20391;-73
2022/03/20 06:43:26;;;;;;;0.90;0.90;;;6.90;96.00;;;;;;5011433;28;20761;-74
2022/03/20 06:45:53;;;;;;;0.60;0.55;;;6.90;94.90;;;;;;5016396;28;20392;-73
2022/03/20 06:48:19;;;;;;;0.40;0.30;;;7.10;96.60;;;;;;5015573;28;20451;-73
2022/03/20 06:50:45;;;;;;;0.93;0.93;;;7.10;95.50;;;;;;5007506;28;20392;-73
2022/03/20 06:53:11;;;;;;;0.60;0.60;;;7.10;94.80;;;;;;5016525;28;20384;-73
2022/03/20 06:55:38;;;;;;;0.40;0.30;;;7.10;94.50;;;;;;5016478;28;20392;-73
2022/03/20 06:58:04;;;;;;;0.40;0.20;;;7.20;95.00;;;;;;5016244;28;20727;-73
2022/03/20 07:00:30;;;;;;;0.45;0.45;;;7.10;96.10;;;;;;5024257;28;20736;-73
2022/03/20 07:02:57;;;;;;;0.40;0.20;;;7.10;95.90;;;;;;5034872;28;20840;-72
2022/03/20 07:05:22;;;;;;;1.83;1.58;;;7.00;95.70;;;;;;5012060;28;20376;-72
2022/03/20 07:07:50;;;;;;;0.70;0.70;;;6.90;96.00;;;;;;5013435;28;20546;-74
2022/03/20 07:10:19;;;;;;;0.40;0.40;;;6.90;97.00;;;;;;5005647;28;20517;-73
2022/03/20 07:12:45;;;;;;;1.50;1.00;;;6.90;95.40;;;;;;5002628;28;20390;-74
2022/03/20 07:15:11;;;;;;;0.43;0.38;;;6.80;95.90;;;;;;5012834;28;20385;-74
2022/03/20 07:17:37;;;;;;;0.40;0.30;;;6.80;98.20;;;;;;5008011;28;20742;-73
2022/03/20 07:20:13;;;;;;;0.40;0.20;;;6.80;96.90;;;;;;5007295;28;20827;-73
2022/03/20 07:22:40;;;;;;;0.40;0.30;;;6.90;97.20;;;;;;5012660;28;20393;-73
2022/03/20 07:30:34;;;;;;;0.80;0.80;;;6.50;99.50;;;;;;5012494;28;20419;-73
2022/03/20 07:32:59;;;;;;;0.80;0.80;;;6.50;99.90;;;;;;5012941;28;20427;-73
2022/03/20 07:35:25;;;;;;;0.40;0.20;;;6.50;99.90;;;;;;5013054;28;20377;-74
2022/03/20 07:37:51;;;;;;;1.10;1.10;;;6.60;99.90;;;;;;5009443;28;20847;-74
2022/03/20 07:40:18;;;;;;;0.40;0.30;;;6.50;99.90;;;;;;5003818;28;20486;-74
2022/03/20 07:42:43;;;;;;;0.40;0.30;;;6.70;99.90;;;;;;5004938;28;20381;-74
2022/03/20 07:45:09;;;;;;;1.00;1.00;;;6.70;99.90;;;;;;5006004;28;20384;-74
2022/03/20 07:47:35;;;;;;;2.70;1.00;;;6.60;99.90;;;;;;5002125;28;20948;-73
2022/03/20 07:50:02;;;;;;;0.40;0.20;;;6.70;99.90;;;;;;5007237;28;20419;-73
2022/03/20 07:52:29;;;;;;;0.40;0.40;;;6.60;99.90;;;;;;5006789;28;21086;-73
2022/03/20 07:54:55;;;;;;;1.10;0.82;;;6.70;99.90;;;;;;5003608;28;20396;-73
2022/03/20 07:57:21;;;;;;;1.00;1.00;;;6.70;99.90;;;;;;5010195;28;20394;-73
2022/03/20 07:59:47;;;;;;;0.60;0.40;;;6.90;99.90;;;;;;5002114;28;20420;-73
2022/03/20 08:02:13;;;;;;;0.40;0.28;;;6.90;99.90;;;;;;5000539;28;20396;-74
2022/03/20 08:04:40;;;;;;;0.40;0.30;;;6.90;99.90;;;;;;5003382;28;20487;-74
2022/03/20 08:07:06;;;;;;;0.40;0.30;;;7.00;99.90;;;;;;4997280;28;20767;-74
2022/03/20 08:09:32;;;;;;;0.50;0.40;;;7.00;99.90;;;;;;4999430;28;20511;-72
2022/03/20 08:11:58;;;;;;;2.00;1.40;;;6.90;99.90;;;;;;4995698;28;20399;-74
2022/03/20 08:14:24;;;;;;;0.55;0.47;;;7.00;99.90;;;;;;5002931;28;20415;-74
2022/03/20 08:16:51;;;;;;;0.90;0.90;;;7.30;99.90;;;;;;5002095;28;20510;-74
2022/03/20 08:19:19;;;;;;;0.70;0.70;;;7.30;99.90;;;;;;4998855;28;20401;-74
2022/03/20 08:21:48;;;;;;;2.70;2.00;;;7.30;99.90;;;;;;5001164;28;20405;-74
2022/03/20 08:24:16;;;;;;;0.40;0.20;;;7.40;99.90;;;;;;5002677;28;20473;-74
2022/03/20 08:26:42;;;;;;;0.50;0.50;;;7.40;99.90;;;;;;5002978;28;20420;-73
2022/03/20 08:29:10;;;;;;;0.40;0.20;;;7.50;99.90;;;;;;5004553;28;20521;-74
2022/03/20 08:31:36;;;;;;;1.35;1.25;;;7.40;99.90;;;;;;5007168;28;20479;-73
2022/03/20 08:34:03;;;;;;;0.50;0.50;;;7.60;99.90;;;;;;5011506;28;20397;-74
2022/03/20 08:36:28;;;;;;;1.83;1.00;;;7.60;99.90;;;;;;5012293;28;20381;-73
2022/03/20 08:38:54;;;;;;;0.40;0.33;;;7.60;99.90;;;;;;5006788;28;20465;-74
2022/03/20 08:41:20;;;;;;;1.30;1.20;;;7.60;99.90;;;;;;5001744;28;20488;-73
2022/03/20 08:43:46;;;;;;;0.50;0.50;;;7.90;99.90;;;;;;5011683;28;20939;-74
2022/03/20 08:46:12;;;;;;;0.50;0.50;;;7.90;99.90;;;;;;5011746;28;20397;-74
2022/03/20 08:48:38;;;;;;;1.10;1.10;;;8.10;99.90;;;;;;5011235;28;20478;-73
2022/03/20 08:51:04;;;;;;;2.90;2.70;;;8.30;99.90;;;;;;5011965;28;20475;-73
2022/03/20 08:53:32;;;;;;;0.50;0.50;;;8.70;99.90;;;;;;5009779;28;20479;-73
2022/03/20 08:55:58;;;;;;;0.40;0.20;;;9.00;99.90;;;;;;4994901;28;20408;-74
2022/03/20 08:58:24;;;;;;;0.60;0.60;;;9.00;99.90;;;;;;5010619;28;20847;-74
2022/03/20 09:00:49;;;;;;;0.40;0.40;;;9.10;99.90;;;;;;5011482;28;20396;-74
2022/03/20 09:03:15;;;;;;;0.70;0.68;;;9.10;99.90;;;;;;5011458;28;20889;-74
2022/03/20 09:05:41;;;;;;;1.10;1.10;;;9.30;99.90;;;;;;5010549;28;20516;-74
2022/03/20 09:08:06;;;;;;;0.60;0.60;;;9.50;99.90;;;;;;5011215;28;20944;-73
2022/03/20 09:10:34;;;;;;;0.57;0.55;;;9.60;99.90;;;;;;5010581;28;20902;-74
2022/03/20 09:13:00;;;;;;;0.70;0.70;;;9.70;99.90;;;;;;5010927;28;20841;-74
2022/03/20 09:15:29;;;;;;;2.10;1.00;;;9.70;99.90;;;;;;5011104;28;20385;-74
2022/03/20 09:20:41;;;;;;;1.30;1.20;;;9.90;99.90;;;;;;5010767;28;20420;-74
2022/03/20 09:23:09;;;;;;;1.80;1.35;;;9.90;99.90;;;;;;5009679;28;20757;-74
2022/03/20 09:25:35;;;;;;;0.70;0.70;;;10.10;99.90;;;;;;5010871;28;20392;-74
2022/03/20 09:28:02;;;;;;;1.00;1.00;;;10.20;99.90;;;;;;5010705;28;20424;-74
2022/03/20 09:30:28;;;;;;;1.90;1.30;;;10.50;99.90;;;;;;5011243;28;20747;-75
2022/03/20 09:32:54;;;;;;;0.70;0.70;;;10.70;99.90;;;;;;5010423;28;20393;-73
2022/03/20 09:35:20;;;;;;;1.25;1.25;;;10.90;99.90;;;;;;5010821;28;20396;-75
2022/03/20 09:37:46;;;;;;;0.60;0.60;;;11.10;99.90;;;;;;5009956;28;20411;-74
2022/03/20 09:40:13;;;;;;;0.80;0.80;;;11.60;99.90;;;;;;5011133;28;20393;-74
2022/03/20 09:42:39;;;;;;;0.70;0.60;;;12.00;98.10;;;;;;5010442;28;20401;-74
2022/03/20 09:45:09;;;;;;;0.50;0.50;;;12.30;94.40;;;;;;4992337;28;20427;-73
2022/03/20 09:47:39;;;;;;;0.40;0.20;;;12.40;94.00;;;;;;5001529;28;20408;-73
2022/03/20 09:50:07;;;;;;;0.85;0.40;;;12.70;93.30;;;;;;5001022;28;20420;-73
2022/03/20 09:52:34;;;;;;;1.00;0.90;;;12.90;91.80;;;;;;4997798;28;20445;-74
2022/03/20 09:55:01;;;;;;;0.47;0.47;;;13.30;88.40;;;;;;5005485;28;20385;-73
2022/03/20 09:57:29;;;;;;;0.90;0.90;;;13.30;86.50;;;;;;5006149;28;20385;-73
2022/03/20 09:59:56;;;;;;;0.40;0.30;;;13.40;81.90;;;;;;5000775;28;20401;-73
2022/03/20 10:02:27;;;;;;;0.40;0.40;;;13.50;83.00;;;;;;5000889;28;20483;-73
2022/03/20 10:04:55;;;;;;;1.30;1.20;;;13.60;84.10;;;;;;5003400;28;20394;-73
2022/03/20 10:07:33;;;;;;;0.80;0.80;;;13.50;82.80;;;;;;5002697;28;20410;-73
2022/03/20 10:10:07;;;;;;;1.20;1.10;;;13.60;81.80;;;;;;4997442;28;20528;-73
2022/03/20 10:12:36;;;;;;;1.20;1.10;;;13.60;82.80;;;;;;5000492;28;20475;-73
2022/03/20 10:15:03;;;;;;;3.22;1.95;;;13.80;83.80;;;;;;4999683;28;20386;-73
2022/03/20 10:17:28;;;;;;;0.40;0.25;;;13.90;83.60;;;;;;4999617;28;20399;-74
2022/03/20 10:20:11;;;;;;;0.50;0.50;;;13.80;87.10;;;;;;5000899;28;20385;-73
2022/03/20 10:22:37;;;;;;;0.50;0.50;;;13.80;88.30;;;;;;4998883;28;20381;-74
2022/03/20 10:25:03;;;;;;;0.40;0.30;;;13.70;85.10;;;;;;4998557;28;20433;-74
2022/03/20 10:27:29;;;;;;;1.10;0.95;;;13.70;77.80;;;;;;4999362;28;20409;-74
2022/03/20 10:30:00;;;;;;;1.00;1.00;;;13.80;82.20;;;;;;4998201;28;20812;-73
2022/03/20 10:32:26;;;;;;;1.00;1.00;;;13.70;88.00;;;;;;4999708;28;20471;-73
2022/03/20 10:35:01;;;;;;;0.50;0.50;;;13.80;88.70;;;;;;5001156;28;20395;-74
2022/03/20 10:37:55;;;;;;;0.70;0.60;;;14.00;87.10;;;;;;5003407;28;20405;-74
2022/03/20 10:40:26;;;;;;;0.60;0.60;;;14.30;81.40;;;;;;5012379;28;20425;-73
2022/03/20 10:43:14;;;;;;;1.40;1.30;;;14.20;71.50;;;;;;5013939;28;20381;-73
2022/03/20 10:45:50;;;;;;;0.40;0.30;;;14.40;73.40;;;;;;5014175;28;20399;-74
2022/03/20 10:48:25;;;;;;;0.50;0.50;;;14.60;81.00;;;;;;5013147;28;20877;-74
2022/03/20 10:50:51;;;;;;;0.93;0.90;;;15.00;80.80;;;;;;5014172;28;20389;-74
2022/03/20 10:53:17;;;;;;;0.40;0.30;;;15.00;73.80;;;;;;5013134;28;20380;-73
2022/03/20 10:55:42;;;;;;;0.40;0.20;;;14.70;74.10;;;;;;5014082;28;20463;-73
2022/03/20 10:58:23;;;;;;;0.40;0.40;;;15.00;67.90;;;;;;5013814;28;20396;-75
2022/03/20 11:00:49;;;;;;;1.10;1.00;;;15.30;70.10;;;;;;5013798;28;20388;-74
2022/03/20 11:03:19;;;;;;;0.60;0.60;;;15.30;64.70;;;;;;5013008;28;20460;-74
2022/03/20 11:05:45;;;;;;;0.47;0.43;;;15.20;59.70;;;;;;5013940;28;20802;-75
2022/03/20 11:08:11;;;;;;;1.80;1.20;;;15.40;62.40;;;;;;5013433;28;20474;-74
2022/03/20 11:10:37;;;;;;;1.00;0.80;;;15.50;65.90;;;;;;4997821;28;20399;-74
2022/03/20 11:13:04;;;;;;;0.60;0.60;;;15.50;66.50;;;;;;4994095;28;20398;-75
2022/03/20 11:15:32;;;;;;;8.40;2.00;;;15.80;66.30;;;;;;4993590;28;20398;-75
2022/03/20 11:17:59;;;;;;;0.70;0.70;;;16.00;65.60;;;;;;4993872;28;20949;-75
2022/03/20 11:20:28;;;;;;;0.40;0.30;;;16.00;65.10;;;;;;4993057;28;20449;-74
2022/03/20 11:22:54;;;;;;;0.40;0.30;;;16.30;65.70;;;;;;4993996;28;20808;-74
2022/03/20 11:25:25;;;;;;;1.90;1.10;;;16.50;61.30;;;;;;4993923;28;20394;-75
2022/03/20 11:28:01;;;;;;;0.40;0.30;;;16.80;62.80;;;;;;4993334;28;20940;-74
2022/03/20 11:30:29;;;;;;;0.80;0.80;;;16.80;60.50;;;;;;4993421;28;20486;-74
2022/03/20 11:33:00;;;;;;;0.80;0.60;;;16.70;63.50;;;;;;4993320;28;20386;-75
2022/03/20 11:35:30;;;;;;;0.63;0.63;;;16.80;63.30;;;;;;4992540;28;20902;-74
2022/03/20 11:37:58;;;;;;;1.40;1.30;;;17.40;59.90;;;;;;4993142;28;20494;-74
2022/03/20 11:40:26;;;;;;;0.60;0.60;;;18.30;56.60;;;;;;4993482;28;20485;-74
2022/03/20 11:43:15;;;;;;;0.47;0.38;;;18.60;53.30;;;;;;4992649;28;20666;-75
2022/03/20 11:45:40;;;;;;;0.50;0.40;;;19.30;54.20;;;;;;4992515;28;20390;-75
2022/03/20 11:48:15;;;;;;;0.40;0.30;;;19.60;55.90;;;;;;4993059;28;20476;-75
2022/03/20 11:50:47;;;;;;;0.40;0.30;;;19.30;53.90;;;;;;4991630;28;20425;-75
2022/03/20 11:53:25;;;;;;;0.93;0.43;;;19.70;50.00;;;;;;4993251;28;20394;-74
2022/03/20 11:55:52;;;;;;;0.40;0.30;;;21.00;50.50;;;;;;4992722;28;20394;-75
2022/03/20 11:58:20;;;;;;;0.50;0.50;;;20.60;50.50;;;;;;4994950;28;20775;-75
2022/03/20 12:01:02;;;;;;;0.40;0.40;;;20.00;49.00;;;;;;4994753;28;20786;-74
2022/03/20 12:03:50;;;;;;;0.40;0.20;;;19.50;48.10;;;;;;4992805;28;20476;-74
2022/03/20 12:06:42;;;;;;;0.60;0.50;;;19.90;49.30;;;;;;4993064;28;20390;-74
2022/03/20 12:09:23;;;;;;;1.10;1.00;;;20.70;47.70;;;;;;4992411;28;20434;-75
2022/03/20 12:12:09;;;;;;;0.60;0.60;;;20.70;46.10;;;;;;4992227;28;20409;-74
2022/03/20 12:14:39;;;;;;;0.40;0.40;;;20.30;46.20;;;;;;4993214;28;20747;-73
2022/03/20 12:17:07;;;;;;;0.40;0.40;;;20.70;46.70;;;;;;4991691;28;20402;-73
2022/03/20 12:19:49;;;;;;;0.40;0.30;;;20.30;48.30;;;;;;4991220;28;20532;-73
2022/03/20 12:22:15;;;;;;;0.60;0.50;;;21.10;46.00;;;;;;4992376;28;20391;-74
2022/03/20 12:24:53;;;;;;;0.50;0.50;;;21.00;48.10;;;;;;4992526;28;20397;-74
2022/03/20 12:27:24;;;;;;;0.40;0.30;;;21.20;48.00;;;;;;4992560;28;20393;-73
2022/03/20 12:29:53;;;;;;;0.40;0.20;;;20.00;46.40;;;;;;4992502;28;20429;-74
2022/03/20 12:32:21;;;;;;;0.40;0.30;;;21.30;46.00;;;;;;4992180;28;20398;-73
2022/03/20 12:35:04;;;;;;;0.50;0.50;;;21.20;45.30;;;;;;4991276;28;20790;-73
2022/03/20 12:40:02;;;;;;;1.02;0.60;;;21.50;44.70;;;;;;4992399;28;20403;-73
2022/03/20 12:42:29;;;;;;;0.40;0.30;;;21.50;45.80;;;;;;4992691;28;20406;-74
2022/03/20 12:44:54;;;;;;;1.50;0.80;;;22.00;44.80;;;;;;4992004;28;20883;-74
2022/03/20 12:47:23;;;;;;;0.40;0.40;;;21.70;43.50;;;;;;4991384;28;20418;-74
2022/03/20 12:49:56;;;;;;;0.40;0.30;;;20.60;42.20;;;;;;4992252;28;20409;-73
2022/03/20 12:52:24;;;;;;;0.40;0.20;;;21.80;40.60;;;;;;4990052;28;21294;-73
2022/03/20 12:54:58;;;;;;;0.40;0.30;;;20.70;41.10;;;;;;4991930;28;20379;-73
2022/03/20 12:57:40;;;;;;;0.40;0.38;;;21.70;42.10;;;;;;4991334;28;20482;-73
2022/03/20 13:00:16;;;;;;;1.00;0.88;;;20.00;41.70;;;;;;4991933;28;20555;-73
2022/03/20 13:02:57;;;;;;;0.50;0.50;;;20.70;44.70;;;;;;4991319;28;20402;-73
2022/03/20 13:05:24;;;;;;;1.20;1.00;;;22.10;42.70;;;;;;4991160;28;20398;-74
2022/03/20 13:07:52;;;;;;;0.70;0.50;;;21.70;41.20;;;;;;4991782;28;20394;-74
2022/03/20 13:10:17;;;;;;;2.10;0.68;;;21.50;41.20;;;;;;5003605;28;20444;-74
2022/03/20 13:13:03;;;;;;;0.40;0.30;;;21.50;42.60;;;;;;5011606;28;20381;-74
2022/03/20 13:15:35;;;;;;;0.40;0.40;;;21.40;43.50;;;;;;5010826;28;20408;-74
2022/03/20 13:18:02;;;;;;;1.70;0.70;;;21.60;41.40;;;;;;5011278;28;20791;-72
2022/03/20 13:20:31;;;;;;;0.50;0.50;;;21.20;41.20;;;;;;5005684;28;20404;-72
2022/03/20 13:22:58;;;;;;;0.80;0.80;;;21.50;40.30;;;;;;5015158;28;20385;-72
2022/03/20 13:25:26;;;;;;;0.80;0.50;;;20.90;41.30;;;;;;5009161;28;20511;-72
2022/03/20 13:27:53;;;;;;;0.80;0.80;;;20.90;41.90;;;;;;5007494;28;20460;-73
2022/03/20 13:30:21;;;;;;;0.50;0.50;;;21.40;41.40;;;;;;5010512;28;20385;-73
2022/03/20 13:32:57;;;;;;;0.40;0.20;;;22.10;40.90;;;;;;5022053;28;20390;-73
2022/03/20 13:35:23;;;;;;;0.40;0.25;;;21.80;39.60;;;;;;4989768;28;20422;-73